createdAt,value
2018-07-25T00:04:41.203Z,40.94
2018-07-25T00:09:44.926Z,40.90
2018-07-25T00:14:48.512Z,40.85
2018-07-25T00:19:51.937Z,40.83
2018-07-25T00:24:55.449Z,40.93
2018-07-25T00:29:59.089Z,40.87
2018-07-25T00:35:02.725Z,40.84
2018-07-25T00:40:06.445Z,40.86
2018-07-25T00:45:09.937Z,40.75
2018-07-25T00:50:13.457Z,40.78
2018-07-25T00:55:16.984Z,40.81
2018-07-25T01:00:20.608Z,40.78
2018-07-25T01:05:24.219Z,40.74
2018-07-25T01:10:27.785Z,40.73
2018-07-25T01:15:31.337Z,40.71
2018-07-25T01:20:34.896Z,40.69
2018-07-25T01:25:38.458Z,40.68
2018-07-25T01:30:41.981Z,40.70
2018-07-25T01:35:45.457Z,40.70
2018-07-25T01:40:49.042Z,40.68
2018-07-25T01:45:52.577Z,40.60
2018-07-25T01:50:56.083Z,40.60
2018-07-25T01:55:59.578Z,40.55
2018-07-25T02:01:03.060Z,40.53
2018-07-25T02:06:06.541Z,40.52
2018-07-25T02:11:10.146Z,40.55
2018-07-25T02:16:13.644Z,40.57
2018-07-25T02:21:17.433Z,40.54
2018-07-25T02:26:20.989Z,40.48
2018-07-25T02:31:24.441Z,40.50
2018-07-25T02:36:27.905Z,40.48
2018-07-25T02:41:31.723Z,40.47
2018-07-25T02:46:35.459Z,40.43
2018-07-25T02:51:38.921Z,40.43
2018-07-25T02:56:42.414Z,40.43
2018-07-25T03:01:46.111Z,40.37
2018-07-25T03:06:49.598Z,40.37
2018-07-25T03:11:53.057Z,40.36
2018-07-25T03:16:56.900Z,40.35
2018-07-25T03:22:00.573Z,40.29
2018-07-25T03:27:04.226Z,40.31
2018-07-25T03:32:07.881Z,40.16
2018-07-25T03:37:11.492Z,40.24
2018-07-25T03:42:15.251Z,40.27
2018-07-25T03:47:19.137Z,40.32
2018-07-25T03:52:22.893Z,40.25
2018-07-25T03:57:26.514Z,40.25
2018-07-25T04:02:30.162Z,40.31
2018-07-25T04:07:33.662Z,40.24
2018-07-25T04:12:37.212Z,40.23
2018-07-25T04:17:48.814Z,40.10
2018-07-25T04:22:52.481Z,40.10
2018-07-25T04:27:55.959Z,39.95
2018-07-25T04:32:59.459Z,39.87
2018-07-25T04:38:03.003Z,39.93
2018-07-25T04:43:06.741Z,39.86
2018-07-25T04:48:10.204Z,39.92
2018-07-25T04:53:13.890Z,39.99
2018-07-25T04:58:17.349Z,39.94
2018-07-25T05:03:20.910Z,39.86
2018-07-25T05:08:24.550Z,39.97
2018-07-25T05:13:28.927Z,39.95
2018-07-25T05:18:32.442Z,40.05
2018-07-25T05:23:36.343Z,40.04
2018-07-25T05:28:39.824Z,40.05
2018-07-25T05:33:43.282Z,40.05
2018-07-25T05:38:46.946Z,40.07
2018-07-25T05:43:50.822Z,40.12
2018-07-25T05:48:54.471Z,40.12
2018-07-25T05:53:58.109Z,40.13
2018-07-25T05:59:02.028Z,40.20
2018-07-25T06:04:05.550Z,40.24
2018-07-25T06:09:10.173Z,40.21
2018-07-25T06:14:13.627Z,40.27
2018-07-25T06:19:17.240Z,40.29
2018-07-25T06:24:20.672Z,40.35
2018-07-25T06:29:24.150Z,40.27
2018-07-25T06:34:27.629Z,40.28
2018-07-25T06:39:31.228Z,40.31
2018-07-25T06:44:34.742Z,40.39
2018-07-25T06:49:38.204Z,40.38
2018-07-25T06:54:41.753Z,40.40
2018-07-25T06:59:45.641Z,40.37
2018-07-25T07:04:49.271Z,39.49
2018-07-25T07:09:52.701Z,39.38
2018-07-25T07:14:56.413Z,39.39
2018-07-25T07:20:00.121Z,39.31
2018-07-25T07:25:04.164Z,39.32
2018-07-25T07:30:08.434Z,39.35
2018-07-25T07:35:12.063Z,39.37
2018-07-25T07:40:15.830Z,39.39
2018-07-25T07:45:19.298Z,39.36
2018-07-25T07:50:23.063Z,39.39
2018-07-25T07:55:26.998Z,39.40
2018-07-25T08:00:30.459Z,39.39
2018-07-25T08:05:34.131Z,39.41
2018-07-25T08:10:37.718Z,39.40
2018-07-25T08:15:41.326Z,39.46
2018-07-25T08:20:44.886Z,39.44
2018-07-25T08:25:48.344Z,39.41
2018-07-25T08:30:52.108Z,39.45
2018-07-25T08:35:55.832Z,39.49
2018-07-25T08:40:59.456Z,39.45
2018-07-25T08:46:03.381Z,39.44
2018-07-25T08:51:07.194Z,39.41
2018-07-25T08:56:10.733Z,39.44
2018-07-25T09:01:14.217Z,39.42
2018-07-25T09:06:17.919Z,39.38
2018-07-25T09:11:26.568Z,39.43
2018-07-25T09:16:30.862Z,39.37
2018-07-25T09:21:34.639Z,39.41
2018-07-25T09:26:38.364Z,39.38
2018-07-25T09:31:42.181Z,39.44
2018-07-25T09:36:45.705Z,39.44
2018-07-25T09:41:49.213Z,39.44
2018-07-25T09:46:53.218Z,39.46
2018-07-25T09:51:56.654Z,39.49
2018-07-25T09:57:00.385Z,39.51
2018-07-25T10:02:04.151Z,39.49
2018-07-25T10:07:07.686Z,39.51
2018-07-25T10:12:11.259Z,39.52
2018-07-25T10:17:14.753Z,39.48
2018-07-25T10:22:18.672Z,39.51
2018-07-25T10:27:22.348Z,39.54
2018-07-25T10:32:25.920Z,39.51
2018-07-25T10:37:29.728Z,39.51
2018-07-25T10:42:33.322Z,39.52
2018-07-25T10:47:37.045Z,39.50
2018-07-25T10:52:40.575Z,39.58
2018-07-25T10:57:44.042Z,39.60
2018-07-25T11:02:47.566Z,39.59
2018-07-25T11:07:51.104Z,39.63
2018-07-25T11:12:54.621Z,39.66
2018-07-25T11:17:58.316Z,39.61
2018-07-25T11:23:02.000Z,39.59
2018-07-25T11:28:05.805Z,39.60
2018-07-25T11:33:09.261Z,39.63
2018-07-25T11:38:12.804Z,39.66
2018-07-25T11:43:16.438Z,39.68
2018-07-25T11:48:19.914Z,39.65
2018-07-25T11:53:23.527Z,39.64
2018-07-25T11:58:27.612Z,39.65
2018-07-25T12:03:31.135Z,39.65
2018-07-25T12:08:34.688Z,39.67
2018-07-25T12:13:38.741Z,39.67
2018-07-25T12:18:42.613Z,39.69
2018-07-25T12:23:46.078Z,39.69
2018-07-25T12:28:49.768Z,39.69
2018-07-25T12:33:53.345Z,39.69
2018-07-25T12:38:57.166Z,39.67
2018-07-25T12:44:00.722Z,39.68
2018-07-25T12:49:04.375Z,39.67
2018-07-25T12:54:08.045Z,39.69
2018-07-25T12:59:11.865Z,39.73
2018-07-25T13:04:15.563Z,39.75
2018-07-25T13:09:19.242Z,39.78
2018-07-25T13:14:22.695Z,39.76
2018-07-25T13:19:26.365Z,39.78
2018-07-25T13:24:29.958Z,39.79
2018-07-25T13:29:33.707Z,39.81
2018-07-25T13:34:37.209Z,39.82
2018-07-25T13:39:40.762Z,39.83
2018-07-25T13:44:44.355Z,39.83
2018-07-25T13:49:48.205Z,39.83
2018-07-25T13:54:52.010Z,39.85
2018-07-25T13:59:55.802Z,39.85
2018-07-25T14:04:59.836Z,39.80
2018-07-25T14:10:04.349Z,39.90
2018-07-25T14:15:08.085Z,39.84
2018-07-25T14:20:11.949Z,39.88
2018-07-25T14:25:16.116Z,39.90
2018-07-25T14:30:20.032Z,39.84
2018-07-25T14:35:24.170Z,39.84
2018-07-25T14:40:28.094Z,39.84
2018-07-25T14:45:31.605Z,39.83
2018-07-25T14:50:35.168Z,39.85
2018-07-25T14:55:38.693Z,39.85
2018-07-25T15:00:42.211Z,39.89
2018-07-25T15:05:46.045Z,39.89
2018-07-25T15:10:50.168Z,39.92
2018-07-25T15:15:54.341Z,39.91
2018-07-25T15:20:57.989Z,39.91
2018-07-25T15:26:01.554Z,39.91
2018-07-25T15:31:06.006Z,39.94
2018-07-25T15:36:10.421Z,39.91
2018-07-25T15:41:14.373Z,39.92
2018-07-25T15:46:18.300Z,39.91
2018-07-25T15:51:21.827Z,39.91
2018-07-25T15:56:25.430Z,39.92
2018-07-25T16:01:29.210Z,39.96
2018-07-25T16:06:33.400Z,40.06
2018-07-25T16:11:37.301Z,40.05
2018-07-25T16:16:40.989Z,40.11
2018-07-25T16:21:44.497Z,40.12
2018-07-25T16:26:48.270Z,40.08
2018-07-25T16:31:52.178Z,40.14
2018-07-25T16:36:55.708Z,40.21
2018-07-25T16:42:00.043Z,40.13
2018-07-25T16:47:03.912Z,40.16
2018-07-25T16:52:07.683Z,40.18
2018-07-25T16:57:11.581Z,40.19
2018-07-25T17:02:15.092Z,40.22
2018-07-25T17:07:19.028Z,40.20
2018-07-25T17:12:23.865Z,40.26
2018-07-25T17:17:27.369Z,40.34
2018-07-25T17:22:31.239Z,40.29
2018-07-25T17:27:35.183Z,40.28
2018-07-25T17:32:39.077Z,40.26
2018-07-25T17:37:42.533Z,40.27
2018-07-25T17:42:46.358Z,40.27
2018-07-25T17:47:49.960Z,40.31
2018-07-25T17:52:53.480Z,40.38
2018-07-25T17:57:57.077Z,40.43
2018-07-25T18:03:01.058Z,40.47
2018-07-25T18:08:04.741Z,40.43
2018-07-25T18:13:13.620Z,40.45
2018-07-25T18:18:17.860Z,40.41
2018-07-25T18:23:21.429Z,40.43
2018-07-25T18:28:25.174Z,40.48
2018-07-25T18:33:28.955Z,40.40
2018-07-25T18:38:32.820Z,40.37
2018-07-25T18:43:36.737Z,40.40
2018-07-25T18:48:40.927Z,40.39
2018-07-25T18:53:45.957Z,40.38
2018-07-25T18:58:50.014Z,40.41
2018-07-25T19:03:53.937Z,40.40
2018-07-25T19:12:54.584Z,40.36
2018-07-25T19:17:58.134Z,40.42
2018-07-25T19:23:01.562Z,40.36
2018-07-25T19:28:05.510Z,40.50
2018-07-25T19:33:09.012Z,40.50
2018-07-25T19:38:12.517Z,40.57
2018-07-25T19:43:16.099Z,40.71
2018-07-25T19:48:19.539Z,40.77
2018-07-25T19:53:22.979Z,40.84
2018-07-25T19:58:26.752Z,40.81
2018-07-25T20:03:30.278Z,40.86
2018-07-25T20:08:33.838Z,40.86
2018-07-25T20:13:41.545Z,40.68
2018-07-25T20:18:45.390Z,40.48
2018-07-25T20:23:49.153Z,40.30
2018-07-25T20:28:52.594Z,40.42
2018-07-25T20:33:56.603Z,40.42
2018-07-25T20:39:00.121Z,40.51
2018-07-25T20:44:03.694Z,40.49
2018-07-25T20:49:08.065Z,40.47
2018-07-25T20:54:11.509Z,40.43
2018-07-25T20:59:15.077Z,40.39
2018-07-25T21:04:19.017Z,40.30
2018-07-25T21:09:22.541Z,40.40
2018-07-25T21:14:26.053Z,40.40
2018-07-25T21:19:29.847Z,40.33
2018-07-25T21:24:33.505Z,40.33
2018-07-25T21:29:37.646Z,40.35
2018-07-25T21:34:42.038Z,40.37
2018-07-25T21:39:45.738Z,40.35
2018-07-25T21:44:51.086Z,40.26
2018-07-25T21:49:55.566Z,40.30
2018-07-25T21:54:59.037Z,40.32
2018-07-25T22:00:02.606Z,40.29
2018-07-25T22:05:06.344Z,40.33
2018-07-25T22:10:10.561Z,40.29
2018-07-25T22:15:14.365Z,40.31
2018-07-25T22:20:18.040Z,40.26
2018-07-25T22:25:21.650Z,40.24
2018-07-25T22:30:25.585Z,40.22
2018-07-25T22:35:29.012Z,40.17
2018-07-25T22:40:32.657Z,40.21
2018-07-25T22:45:36.431Z,40.16
2018-07-25T22:50:39.965Z,40.16
2018-07-25T22:55:43.634Z,40.13
2018-07-25T23:00:47.096Z,40.13
2018-07-25T23:05:50.672Z,40.08
2018-07-25T23:10:54.284Z,40.08
2018-07-25T23:15:57.825Z,40.09
2018-07-25T23:21:01.486Z,40.04
2018-07-25T23:26:05.067Z,40.07
2018-07-25T23:31:08.726Z,40.07
2018-07-25T23:36:12.377Z,40.07
2018-07-25T23:41:15.943Z,40.06
2018-07-25T23:46:19.690Z,40.04
2018-07-25T23:51:23.161Z,40.04
2018-07-25T23:56:26.825Z,39.98
